METEOROLOGIA BHB

24 - 21:00 - METAR SAZB 242100Z 36010KT CAVOK 20/07 Q1016 =

IMAGEN SATELITAL

WINDY